createdAt,value
2023-02-23T00:02:12.709Z,288
2023-02-23T00:04:40.932Z,275
2023-02-23T00:07:09.100Z,250
2023-02-23T00:09:37.320Z,257
2023-02-23T00:13:11.550Z,246
2023-02-23T00:15:39.768Z,282
2023-02-23T00:18:08.006Z,250
2023-02-23T00:21:50.400Z,273
2023-02-23T00:24:18.699Z,260
2023-02-23T00:26:46.991Z,291
2023-02-23T00:29:15.127Z,262
2023-02-23T00:32:20.659Z,281
2023-02-23T00:35:25.735Z,255
2023-02-23T00:48:24.050Z,262
2023-02-23T00:55:11.754Z,240
2023-02-23T00:57:39.970Z,272
2023-02-23T01:03:13.924Z,298
2023-02-23T01:05:41.800Z,233
2023-02-23T01:08:10.056Z,241
2023-02-23T01:11:36.065Z,263
2023-02-23T01:15:18.392Z,239
2023-02-23T01:18:23.695Z,222
2023-02-23T01:21:29.038Z,236
2023-02-23T01:25:11.434Z,221
2023-02-23T01:29:30.812Z,235
2023-02-23T01:34:27.276Z,247
2023-02-23T01:39:23.799Z,233
2023-02-23T01:42:29.128Z,250
2023-02-23T01:48:02.686Z,246
2023-02-23T01:51:07.972Z,274
2023-02-23T01:54:50.358Z,238
2023-02-23T01:57:18.595Z,247
2023-02-23T02:00:23.922Z,275
2023-02-23T02:05:20.437Z,229
2023-02-23T02:10:16.931Z,268
2023-02-23T02:13:22.244Z,226
2023-02-23T02:15:50.513Z,256
2023-02-23T02:18:55.764Z,264
2023-02-23T02:23:35.874Z,221
2023-02-23T02:27:18.261Z,232
2023-02-23T02:30:23.603Z,253
2023-02-23T02:33:28.849Z,271
2023-02-23T02:36:34.191Z,295
2023-02-23T02:39:39.472Z,256
2023-02-23T02:43:21.841Z,268
2023-02-23T02:46:27.268Z,299
2023-02-23T02:49:32.481Z,285
2023-02-23T02:55:06.033Z,273
2023-02-23T02:58:48.400Z,275
2023-02-23T03:01:17.156Z,316
2023-02-23T03:03:44.913Z,274
2023-02-23T03:06:13.140Z,330
2023-02-23T03:09:18.605Z,256
2023-02-23T03:13:37.877Z,281
2023-02-23T03:18:34.370Z,279
2023-02-23T03:22:53.799Z,280
2023-02-23T03:25:22.067Z,262
2023-02-23T03:27:50.287Z,270
2023-02-23T03:30:18.584Z,275
2023-02-23T03:32:46.820Z,280
2023-02-23T03:36:29.168Z,257
2023-02-23T03:41:25.683Z,253
2023-02-23T03:45:45.201Z,298
2023-02-23T03:48:13.339Z,268
2023-02-23T03:50:41.645Z,294
2023-02-23T03:53:46.948Z,264
2023-02-23T03:57:21.058Z,234
2023-02-23T04:00:26.409Z,294
2023-02-23T04:03:31.750Z,268
2023-02-23T04:05:59.931Z,307
2023-02-23T04:09:42.309Z,263
2023-02-23T04:12:10.578Z,290
2023-02-23T04:15:53.012Z,246
2023-02-23T04:18:22.206Z,272
2023-02-23T04:21:26.551Z,258
2023-02-23T04:25:08.906Z,263
2023-02-23T04:28:14.161Z,289
2023-02-23T04:30:42.476Z,269
2023-02-23T04:33:47.766Z,269
2023-02-23T04:38:07.143Z,264
2023-02-23T04:42:43.265Z,247
2023-02-23T04:45:11.469Z,254
2023-02-23T04:47:39.697Z,261
2023-02-23T04:50:07.979Z,232
2023-02-23T04:52:36.226Z,252
2023-02-23T04:56:18.583Z,237
2023-02-23T05:06:11.672Z,264
2023-02-23T05:17:18.692Z,273
2023-02-23T05:21:38.150Z,232
2023-02-23T05:24:43.567Z,261
2023-02-23T05:28:09.435Z,228
2023-02-23T05:32:28.914Z,242
2023-02-23T05:37:25.394Z,293
2023-02-23T05:43:35.964Z,267
2023-02-23T05:46:04.255Z,288
2023-02-23T05:49:46.582Z,217
2023-02-23T05:52:14.856Z,207
2023-02-23T05:54:43.092Z,266
2023-02-23T05:57:11.320Z,233
2023-02-23T05:59:39.590Z,229
2023-02-23T06:02:07.846Z,272
2023-02-23T06:04:36.107Z,246
2023-02-23T06:07:04.322Z,264
2023-02-23T06:12:00.858Z,217
2023-02-23T06:19:25.553Z,202
2023-02-23T06:29:18.561Z,240
2023-02-23T06:34:15.034Z,273
2023-02-23T06:36:43.488Z,227
2023-02-23T06:39:11.530Z,250
2023-02-23T06:41:39.782Z,245
2023-02-23T06:44:08.016Z,266
2023-02-23T06:46:36.415Z,278
2023-02-23T06:51:28.658Z,187
2023-02-23T06:54:34.002Z,209
2023-02-23T06:58:16.368Z,202
2023-02-23T07:00:44.614Z,231
2023-02-23T07:03:50.082Z,196
2023-02-23T07:08:46.416Z,188
2023-02-23T07:11:51.743Z,161
2023-02-23T07:15:34.103Z,175
2023-02-23T07:18:39.390Z,282
2023-02-23T07:21:44.767Z,303
2023-02-23T07:24:12.958Z,351
2023-02-23T07:28:32.372Z,342
2023-02-23T07:32:14.880Z,342
2023-02-23T07:35:57.133Z,349
2023-02-23T07:40:53.627Z,266
2023-02-23T07:45:50.148Z,324
2023-02-23T07:48:18.387Z,328
2023-02-23T07:52:17.416Z,258
2023-02-23T08:05:15.606Z,265
2023-02-23T08:07:43.869Z,261
2023-02-23T08:10:12.139Z,267
2023-02-23T08:12:40.429Z,264
2023-02-23T08:15:45.697Z,206
2023-02-23T08:18:14.015Z,223
2023-02-23T08:20:42.191Z,119
2023-02-23T08:24:24.572Z,178
2023-02-23T08:27:29.889Z,181
2023-02-23T08:32:26.397Z,157
2023-02-23T08:36:08.686Z,107
2023-02-23T08:39:14.130Z,161
2023-02-23T08:41:42.297Z,204
2023-02-23T08:44:47.587Z,124
2023-02-23T08:47:15.854Z,195
2023-02-23T08:50:21.205Z,159
2023-02-23T08:55:17.652Z,162
2023-02-23T08:58:22.959Z,148
2023-02-23T09:01:20.387Z,149
2023-02-23T09:04:25.516Z,66
2023-02-23T09:06:53.616Z,111
2023-02-23T09:09:21.882Z,111
2023-02-23T09:12:27.135Z,74
2023-02-23T09:17:23.673Z,176
2023-02-23T09:19:52.036Z,129
2023-02-23T09:23:34.331Z,83
2023-02-23T09:26:39.641Z,183
2023-02-23T09:29:07.822Z,114
2023-02-23T09:31:36.190Z,77
2023-02-23T09:34:04.346Z,77
2023-02-23T09:36:32.577Z,86
2023-02-23T09:40:14.955Z,138
2023-02-23T09:43:20.235Z,125
2023-02-23T09:46:25.687Z,64
2023-02-23T09:49:30.851Z,75
2023-02-23T09:53:13.264Z,75
2023-02-23T09:56:18.539Z,114
2023-02-23T09:58:46.818Z,106
2023-02-23T10:01:15.065Z,141
2023-02-23T10:03:43.308Z,163
2023-02-23T10:06:11.544Z,86
2023-02-23T10:08:39.847Z,93
2023-02-23T10:26:10.021Z,165
2023-02-23T10:33:34.778Z,165
2023-02-23T10:37:17.144Z,184
2023-02-23T10:42:13.646Z,119
2023-02-23T10:45:18.929Z,123
2023-02-23T10:48:24.558Z,158
2023-02-23T10:53:20.742Z,186
2023-02-23T10:58:17.260Z,149
2023-02-23T11:01:22.860Z,107
2023-02-23T11:04:27.891Z,169
2023-02-23T11:07:33.192Z,146
2023-02-23T11:10:38.466Z,170
2023-02-23T11:13:06.739Z,152
2023-02-23T11:15:49.624Z,133
2023-02-23T11:18:03.237Z,117
2023-02-23T11:20:31.446Z,147
2023-02-23T11:24:13.841Z,137
2023-02-23T11:32:15.812Z,99
2023-02-23T11:44:36.875Z,87
2023-02-23T11:47:05.229Z,213
2023-02-23T11:51:24.563Z,132
2023-02-23T11:56:21.443Z,163
2023-02-23T11:59:18.210Z,114
2023-02-23T12:02:23.501Z,140
2023-02-23T12:05:28.789Z,138
2023-02-23T12:08:34.091Z,142
2023-02-23T12:13:30.596Z,108
2023-02-23T12:16:35.922Z,101
2023-02-23T12:19:04.247Z,117
2023-02-23T12:22:46.558Z,140
2023-02-23T12:27:43.054Z,142
2023-02-23T12:30:48.454Z,158
2023-02-23T12:33:53.647Z,142
2023-02-23T12:37:36.047Z,145
2023-02-23T12:40:41.366Z,181
2023-02-23T12:44:15.529Z,147
2023-02-23T12:47:20.808Z,143
2023-02-23T12:50:26.173Z,152
2023-02-23T12:53:31.427Z,111
2023-02-23T12:55:59.749Z,100
2023-02-23T13:00:19.145Z,173
2023-02-23T13:05:15.621Z,76
2023-02-23T13:07:43.828Z,163
2023-02-23T13:10:12.244Z,72
2023-02-23T13:13:17.423Z,97
2023-02-23T13:21:56.347Z,89
2023-02-23T13:34:17.541Z,129
2023-02-23T13:40:28.181Z,87
2023-02-23T13:42:56.465Z,63
2023-02-23T13:46:38.801Z,160
2023-02-23T13:49:07.231Z,128
2023-02-23T13:52:12.413Z,116
2023-02-23T13:55:17.726Z,105
2023-02-23T13:58:23.047Z,183
2023-02-23T14:07:22.487Z,82
2023-02-23T14:09:50.717Z,148
2023-02-23T14:12:19.015Z,177
2023-02-23T14:14:47.283Z,129
2023-02-23T14:17:15.460Z,144
2023-02-23T14:20:29.159Z,119
2023-02-23T14:25:56.269Z,98
2023-02-23T14:38:52.658Z,84
2023-02-23T14:44:29.767Z,181
2023-02-23T14:46:54.488Z,111
2023-02-23T14:50:36.874Z,101
2023-02-23T14:53:42.257Z,113
2023-02-23T14:56:47.516Z,219
2023-02-23T15:02:20.958Z,181
2023-02-23T15:05:26.310Z,127
2023-02-23T15:20:16.889Z,177
2023-02-23T15:26:26.424Z,138
2023-02-23T15:30:29.466Z,164
2023-02-23T15:37:59.431Z,124
2023-02-23T15:41:36.579Z,146
2023-02-23T15:44:44.799Z,188
2023-02-23T15:47:47.228Z,262
2023-02-23T15:50:18.079Z,197
2023-02-23T15:53:20.862Z,176
2023-02-23T15:56:26.035Z,169
2023-02-23T16:01:22.541Z,103
2023-02-23T16:04:27.966Z,150
2023-02-23T16:08:47.298Z,186
2023-02-23T16:13:43.817Z,164
2023-02-23T16:27:19.178Z,173
2023-02-23T16:38:46.943Z,218
2023-02-23T16:41:52.254Z,163
2023-02-23T16:44:57.617Z,172
2023-02-23T16:48:39.931Z,191
2023-02-23T16:52:22.320Z,192
2023-02-23T16:55:27.660Z,170
2023-02-23T17:01:38.209Z,194
2023-02-23T17:04:43.675Z,156
2023-02-23T17:07:11.808Z,176
2023-02-23T17:09:40.059Z,178
2023-02-23T17:12:08.273Z,169
2023-02-23T17:15:13.628Z,204
2023-02-23T17:19:33.058Z,159
2023-02-23T17:23:15.441Z,174
2023-02-23T17:26:57.771Z,198
2023-02-23T17:36:13.717Z,184
2023-02-23T17:41:10.228Z,180
2023-02-23T17:44:15.515Z,168
2023-02-23T17:46:43.765Z,193
2023-02-23T17:49:32.700Z,191
2023-02-23T17:52:37.998Z,190
2023-02-23T17:56:20.460Z,199
2023-02-23T17:59:25.681Z,181
2023-02-23T18:03:08.143Z,188
2023-02-23T18:05:36.325Z,178
2023-02-23T18:11:46.931Z,238
2023-02-23T18:14:15.118Z,257
2023-02-23T18:19:11.641Z,244
2023-02-23T18:22:16.948Z,229
2023-02-23T18:26:36.508Z,132
2023-02-23T18:29:04.670Z,136
2023-02-23T18:32:47.179Z,124
2023-02-23T18:35:52.336Z,148
2023-02-23T18:38:20.590Z,249
2023-02-23T18:43:17.065Z,240
2023-02-23T18:47:36.492Z,167
2023-02-23T18:50:41.792Z,102
2023-02-23T18:53:10.069Z,102
2023-02-23T18:55:38.303Z,94
2023-02-23T18:58:06.533Z,118
2023-02-23T19:01:11.893Z,98
2023-02-23T19:05:31.341Z,63
2023-02-23T19:08:36.608Z,78
2023-02-23T19:11:25.531Z,91
2023-02-23T19:14:48.172Z,92
2023-02-23T19:17:36.195Z,117
2023-02-23T19:20:04.422Z,124
2023-02-23T19:22:32.619Z,79
2023-02-23T19:26:15.027Z,84
2023-02-23T19:29:20.312Z,87
2023-02-23T19:34:16.824Z,91
2023-02-23T19:36:45.051Z,121
2023-02-23T19:39:13.330Z,105
2023-02-23T19:42:18.619Z,117
2023-02-23T19:45:23.981Z,95
2023-02-23T19:48:30.275Z,76
2023-02-23T19:52:11.591Z,80
2023-02-23T19:55:53.966Z,78
2023-02-23T19:59:36.357Z,79
2023-02-23T20:02:04.636Z,89
2023-02-23T20:05:46.992Z,114
2023-02-23T20:09:29.360Z,103
2023-02-23T20:14:17.684Z,104
2023-02-23T20:17:22.954Z,110
2023-02-23T20:21:42.469Z,77
2023-02-23T20:24:10.655Z,96
2023-02-23T20:26:38.889Z,113
2023-02-23T20:29:07.139Z,93
2023-02-23T20:31:35.413Z,95
2023-02-23T20:35:17.784Z,141
2023-02-23T20:38:23.074Z,98
2023-02-23T20:41:28.366Z,97
2023-02-23T20:46:25.013Z,104
2023-02-23T20:48:53.136Z,108
2023-02-23T20:52:35.502Z,133
2023-02-23T20:55:40.801Z,96
2023-02-23T20:58:46.135Z,86
2023-02-23T21:09:16.173Z,100
2023-02-23T21:22:14.483Z,112
2023-02-23T21:25:19.792Z,90
2023-02-23T21:27:48.034Z,110
2023-02-23T21:30:16.373Z,139
2023-02-23T21:32:44.641Z,118
2023-02-23T21:35:12.799Z,91
2023-02-23T21:38:18.069Z,131
2023-02-23T21:41:23.379Z,113
2023-02-23T21:43:51.620Z,112
2023-02-23T21:46:11.731Z,124
2023-02-23T21:49:16.994Z,109
2023-02-23T21:52:22.349Z,103
2023-02-23T21:55:27.615Z,122
2023-02-23T21:58:32.976Z,119
2023-02-23T22:01:38.353Z,136
2023-02-23T22:04:06.485Z,130
2023-02-23T22:07:11.791Z,180
2023-02-23T22:10:17.130Z,141
2023-02-23T22:12:45.336Z,145
2023-02-23T22:15:13.584Z,156
2023-02-23T22:18:18.926Z,142
2023-02-23T22:22:01.252Z,144
2023-02-23T22:25:43.675Z,150
2023-02-23T22:28:49.097Z,142
2023-02-23T22:31:54.549Z,141
2023-02-23T22:34:59.647Z,139
2023-02-23T22:39:19.222Z,192
2023-02-23T22:42:24.378Z,156
2023-02-23T22:45:21.617Z,146
2023-02-23T22:50:18.291Z,155
2023-02-23T22:52:46.353Z,196
2023-02-23T22:55:14.454Z,163
2023-02-23T22:57:42.753Z,207
2023-02-23T23:00:11.281Z,164
2023-02-23T23:02:39.139Z,202
2023-02-23T23:06:21.641Z,203
2023-02-23T23:09:26.900Z,214
2023-02-23T23:12:32.127Z,202
2023-02-23T23:16:25.457Z,227
2023-02-23T23:19:19.829Z,207
2023-02-23T23:22:25.135Z,246
2023-02-23T23:27:21.674Z,240
2023-02-23T23:29:49.865Z,235
2023-02-23T23:32:18.306Z,275
2023-02-23T23:34:46.531Z,259
2023-02-23T23:37:14.841Z,256
2023-02-23T23:39:42.881Z,247
2023-02-23T23:42:11.118Z,286
2023-02-23T23:47:28.344Z,272
2023-02-23T23:50:33.656Z,272
2023-02-23T23:54:15.974Z,276
2023-02-23T23:57:21.266Z,283
